sensor_id;sensor_type;location;lat;lon;timestamp;P1;durP1;ratioP1;P2;durP2;ratioP2
813;SDS011;389;48.710;9.392;2022-12-18T00:01:21;55.90;;;20.77;;
813;SDS011;389;48.710;9.392;2022-12-18T00:03:50;51.63;;;16.23;;
813;SDS011;389;48.710;9.392;2022-12-18T00:06:16;39.17;;;16.50;;
813;SDS011;389;48.710;9.392;2022-12-18T00:08:43;40.33;;;16.03;;
813;SDS011;389;48.710;9.392;2022-12-18T00:11:11;45.90;;;23.60;;
813;SDS011;389;48.710;9.392;2022-12-18T00:13:38;44.60;;;18.13;;
813;SDS011;389;48.710;9.392;2022-12-18T00:16:05;41.07;;;15.43;;
813;SDS011;389;48.710;9.392;2022-12-18T00:18:33;27.37;;;13.77;;
813;SDS011;389;48.710;9.392;2022-12-18T00:21:03;26.10;;;11.77;;
813;SDS011;389;48.710;9.392;2022-12-18T00:23:32;44.37;;;14.73;;
813;SDS011;389;48.710;9.392;2022-12-18T00:25:59;36.10;;;17.07;;
813;SDS011;389;48.710;9.392;2022-12-18T00:28:30;36.90;;;15.77;;
813;SDS011;389;48.710;9.392;2022-12-18T00:31:04;31.40;;;12.70;;
813;SDS011;389;48.710;9.392;2022-12-18T00:33:34;31.13;;;15.10;;
813;SDS011;389;48.710;9.392;2022-12-18T00:36:04;43.77;;;13.90;;
813;SDS011;389;48.710;9.392;2022-12-18T00:38:32;32.47;;;13.80;;
813;SDS011;389;48.710;9.392;2022-12-18T00:40:58;46.33;;;17.10;;
813;SDS011;389;48.710;9.392;2022-12-18T00:43:24;25.17;;;12.07;;
813;SDS011;389;48.710;9.392;2022-12-18T00:45:49;45.93;;;14.93;;
813;SDS011;389;48.710;9.392;2022-12-18T00:48:15;33.40;;;14.40;;
813;SDS011;389;48.710;9.392;2022-12-18T00:50:40;33.70;;;12.37;;
813;SDS011;389;48.710;9.392;2022-12-18T00:53:06;28.03;;;13.20;;
813;SDS011;389;48.710;9.392;2022-12-18T00:55:32;29.53;;;12.67;;
813;SDS011;389;48.710;9.392;2022-12-18T00:57:57;26.07;;;16.10;;
813;SDS011;389;48.710;9.392;2022-12-18T01:00:32;25.50;;;12.83;;
813;SDS011;389;48.710;9.392;2022-12-18T01:02:58;25.30;;;11.37;;
813;SDS011;389;48.710;9.392;2022-12-18T01:05:25;35.93;;;14.70;;
813;SDS011;389;48.710;9.392;2022-12-18T01:07:50;16.37;;;9.53;;
813;SDS011;389;48.710;9.392;2022-12-18T01:10:16;19.50;;;11.07;;
813;SDS011;389;48.710;9.392;2022-12-18T01:12:42;21.97;;;12.80;;
813;SDS011;389;48.710;9.392;2022-12-18T01:15:07;28.37;;;12.40;;
813;SDS011;389;48.710;9.392;2022-12-18T01:17:34;32.57;;;11.07;;
813;SDS011;389;48.710;9.392;2022-12-18T01:20:00;44.87;;;14.27;;
813;SDS011;389;48.710;9.392;2022-12-18T01:22:26;26.80;;;12.10;;
813;SDS011;389;48.710;9.392;2022-12-18T01:24:51;18.03;;;9.13;;
813;SDS011;389;48.710;9.392;2022-12-18T01:27:17;23.33;;;10.20;;
813;SDS011;389;48.710;9.392;2022-12-18T01:29:42;23.73;;;9.27;;
813;SDS011;389;48.710;9.392;2022-12-18T01:32:08;21.20;;;10.93;;
813;SDS011;389;48.710;9.392;2022-12-18T01:34:35;24.47;;;11.00;;
813;SDS011;389;48.710;9.392;2022-12-18T01:37:02;28.83;;;10.50;;
813;SDS011;389;48.710;9.392;2022-12-18T01:39:29;19.80;;;9.30;;
813;SDS011;389;48.710;9.392;2022-12-18T01:41:54;28.00;;;10.37;;
813;SDS011;389;48.710;9.392;2022-12-18T01:50:12;22.37;;;11.97;;
813;SDS011;389;48.710;9.392;2022-12-18T01:52:38;27.20;;;10.93;;
813;SDS011;389;48.710;9.392;2022-12-18T01:55:10;29.13;;;11.30;;
813;SDS011;389;48.710;9.392;2022-12-18T01:57:37;22.13;;;11.50;;
813;SDS011;389;48.710;9.392;2022-12-18T02:00:05;20.67;;;10.03;;
813;SDS011;389;48.710;9.392;2022-12-18T02:02:40;31.27;;;13.30;;
813;SDS011;389;48.710;9.392;2022-12-18T02:05:06;30.75;;;11.65;;
813;SDS011;389;48.710;9.392;2022-12-18T02:10:20;20.87;;;7.00;;
813;SDS011;389;48.710;9.392;2022-12-18T02:15:40;23.07;;;8.97;;
813;SDS011;389;48.710;9.392;2022-12-18T02:18:14;26.47;;;9.97;;
813;SDS011;389;48.710;9.392;2022-12-18T02:20:48;25.00;;;11.07;;
813;SDS011;389;48.710;9.392;2022-12-18T02:29:03;20.83;;;8.60;;
813;SDS011;389;48.710;9.392;2022-12-18T02:31:41;20.67;;;9.65;;
813;SDS011;389;48.710;9.392;2022-12-18T02:34:10;17.53;;;11.30;;
813;SDS011;389;48.710;9.392;2022-12-18T02:36:38;29.43;;;10.17;;
813;SDS011;389;48.710;9.392;2022-12-18T02:39:07;20.13;;;9.77;;
813;SDS011;389;48.710;9.392;2022-12-18T02:41:36;28.45;;;11.05;;
813;SDS011;389;48.710;9.392;2022-12-18T02:44:07;14.40;;;9.40;;
813;SDS011;389;48.710;9.392;2022-12-18T02:46:37;16.27;;;10.82;;
813;SDS011;389;48.710;9.392;2022-12-18T02:49:12;28.02;;;11.32;;
813;SDS011;389;48.710;9.392;2022-12-18T02:54:41;41.88;;;11.77;;
813;SDS011;389;48.710;9.392;2022-12-18T02:57:55;36.42;;;14.18;;
813;SDS011;389;48.710;9.392;2022-12-18T03:00:04;21.10;;;7.40;;
813;SDS011;389;48.710;9.392;2022-12-18T03:02:54;25.73;;;12.05;;
813;SDS011;389;48.710;9.392;2022-12-18T03:05:29;20.60;;;10.10;;
813;SDS011;389;48.710;9.392;2022-12-18T03:07:59;31.90;;;11.05;;
813;SDS011;389;48.710;9.392;2022-12-18T03:10:27;32.60;;;12.52;;
813;SDS011;389;48.710;9.392;2022-12-18T03:13:06;16.77;;;8.40;;
813;SDS011;389;48.710;9.392;2022-12-18T03:15:37;15.55;;;9.68;;
813;SDS011;389;48.710;9.392;2022-12-18T03:18:16;29.58;;;10.65;;
813;SDS011;389;48.710;9.392;2022-12-18T03:20:51;25.17;;;8.95;;
813;SDS011;389;48.710;9.392;2022-12-18T03:23:23;12.43;;;6.63;;
813;SDS011;389;48.710;9.392;2022-12-18T03:25:53;10.63;;;7.32;;
813;SDS011;389;48.710;9.392;2022-12-18T03:28:23;17.52;;;8.05;;
813;SDS011;389;48.710;9.392;2022-12-18T03:30:50;23.70;;;9.30;;
813;SDS011;389;48.710;9.392;2022-12-18T03:33:40;19.17;;;8.00;;
813;SDS011;389;48.710;9.392;2022-12-18T03:36:27;29.73;;;7.78;;
813;SDS011;389;48.710;9.392;2022-12-18T03:38:53;21.83;;;9.10;;
813;SDS011;389;48.710;9.392;2022-12-18T03:41:32;28.97;;;7.60;;
813;SDS011;389;48.710;9.392;2022-12-18T03:44:12;11.60;;;6.05;;
813;SDS011;389;48.710;9.392;2022-12-18T03:49:25;20.27;;;9.32;;
813;SDS011;389;48.710;9.392;2022-12-18T03:52:01;20.75;;;8.35;;
813;SDS011;389;48.710;9.392;2022-12-18T03:54:28;17.38;;;7.55;;
813;SDS011;389;48.710;9.392;2022-12-18T03:57:06;15.27;;;7.97;;
813;SDS011;389;48.710;9.392;2022-12-18T03:59:38;18.33;;;8.18;;
813;SDS011;389;48.710;9.392;2022-12-18T04:02:05;13.27;;;6.53;;
813;SDS011;389;48.710;9.392;2022-12-18T04:04:33;9.80;;;6.03;;
813;SDS011;389;48.710;9.392;2022-12-18T04:07:01;15.75;;;8.70;;
813;SDS011;389;48.710;9.392;2022-12-18T04:09:27;6.78;;;6.15;;
813;SDS011;389;48.710;9.392;2022-12-18T04:11:54;19.20;;;6.68;;
813;SDS011;389;48.710;9.392;2022-12-18T04:14:20;9.77;;;5.40;;
813;SDS011;389;48.710;9.392;2022-12-18T04:16:46;9.07;;;5.57;;
813;SDS011;389;48.710;9.392;2022-12-18T04:19:11;13.97;;;7.23;;
813;SDS011;389;48.710;9.392;2022-12-18T04:21:37;10.53;;;6.10;;
813;SDS011;389;48.710;9.392;2022-12-18T04:24:03;26.50;;;6.23;;
813;SDS011;389;48.710;9.392;2022-12-18T04:26:28;9.87;;;6.33;;
813;SDS011;389;48.710;9.392;2022-12-18T04:28:54;20.73;;;6.47;;
813;SDS011;389;48.710;9.392;2022-12-18T04:31:19;11.23;;;8.50;;
813;SDS011;389;48.710;9.392;2022-12-18T04:33:45;14.50;;;5.80;;
813;SDS011;389;48.710;9.392;2022-12-18T04:36:11;14.17;;;7.73;;
813;SDS011;389;48.710;9.392;2022-12-18T04:38:37;11.07;;;5.22;;
813;SDS011;389;48.710;9.392;2022-12-18T04:41:03;10.20;;;7.27;;
813;SDS011;389;48.710;9.392;2022-12-18T04:43:28;9.03;;;4.33;;
813;SDS011;389;48.710;9.392;2022-12-18T04:46:00;12.07;;;5.93;;
813;SDS011;389;48.710;9.392;2022-12-18T04:48:30;19.60;;;8.07;;
813;SDS011;389;48.710;9.392;2022-12-18T04:53:24;22.35;;;8.15;;
813;SDS011;389;48.710;9.392;2022-12-18T04:55:49;12.97;;;6.23;;
813;SDS011;389;48.710;9.392;2022-12-18T04:58:15;18.87;;;6.13;;
813;SDS011;389;48.710;9.392;2022-12-18T05:00:40;10.93;;;7.27;;
813;SDS011;389;48.710;9.392;2022-12-18T05:03:06;8.67;;;6.80;;
813;SDS011;389;48.710;9.392;2022-12-18T05:05:33;17.10;;;5.63;;
813;SDS011;389;48.710;9.392;2022-12-18T05:08:00;7.00;;;5.32;;
813;SDS011;389;48.710;9.392;2022-12-18T05:10:25;12.70;;;5.80;;
813;SDS011;389;48.710;9.392;2022-12-18T05:12:51;11.10;;;5.80;;
813;SDS011;389;48.710;9.392;2022-12-18T05:15:23;9.60;;;5.97;;
813;SDS011;389;48.710;9.392;2022-12-18T05:17:49;8.70;;;4.90;;
813;SDS011;389;48.710;9.392;2022-12-18T05:20:14;13.77;;;7.07;;
813;SDS011;389;48.710;9.392;2022-12-18T05:22:40;8.00;;;5.80;;
813;SDS011;389;48.710;9.392;2022-12-18T05:25:06;8.50;;;5.07;;
813;SDS011;389;48.710;9.392;2022-12-18T05:27:34;16.08;;;7.43;;
813;SDS011;389;48.710;9.392;2022-12-18T05:30:00;10.17;;;6.53;;
813;SDS011;389;48.710;9.392;2022-12-18T05:32:25;16.00;;;5.73;;
813;SDS011;389;48.710;9.392;2022-12-18T05:34:51;7.57;;;5.00;;
813;SDS011;389;48.710;9.392;2022-12-18T05:37:16;6.90;;;5.57;;
813;SDS011;389;48.710;9.392;2022-12-18T05:39:42;15.17;;;6.03;;
813;SDS011;389;48.710;9.392;2022-12-18T05:42:08;26.58;;;5.18;;
813;SDS011;389;48.710;9.392;2022-12-18T05:44:33;10.13;;;6.13;;
813;SDS011;389;48.710;9.392;2022-12-18T05:46:59;9.03;;;6.10;;
813;SDS011;389;48.710;9.392;2022-12-18T05:49:24;9.57;;;6.87;;
813;SDS011;389;48.710;9.392;2022-12-18T05:51:50;7.20;;;4.77;;
813;SDS011;389;48.710;9.392;2022-12-18T05:54:16;17.23;;;6.37;;
813;SDS011;389;48.710;9.392;2022-12-18T05:56:41;6.93;;;4.50;;
813;SDS011;389;48.710;9.392;2022-12-18T05:59:07;8.40;;;5.23;;
813;SDS011;389;48.710;9.392;2022-12-18T06:01:32;8.07;;;4.83;;
813;SDS011;389;48.710;9.392;2022-12-18T06:03:58;6.37;;;4.37;;
813;SDS011;389;48.710;9.392;2022-12-18T06:06:24;7.00;;;4.90;;
813;SDS011;389;48.710;9.392;2022-12-18T06:08:52;14.00;;;6.60;;
813;SDS011;389;48.710;9.392;2022-12-18T06:11:20;21.73;;;5.60;;
813;SDS011;389;48.710;9.392;2022-12-18T06:13:51;53.30;;;20.95;;
813;SDS011;389;48.710;9.392;2022-12-18T06:16:18;24.20;;;12.10;;
813;SDS011;389;48.710;9.392;2022-12-18T06:18:43;11.63;;;6.40;;
813;SDS011;389;48.710;9.392;2022-12-18T06:21:09;8.37;;;5.50;;
813;SDS011;389;48.710;9.392;2022-12-18T06:23:35;7.63;;;6.83;;
813;SDS011;389;48.710;9.392;2022-12-18T06:26:04;20.70;;;7.37;;
813;SDS011;389;48.710;9.392;2022-12-18T06:28:36;5.60;;;4.55;;
813;SDS011;389;48.710;9.392;2022-12-18T06:31:05;8.97;;;6.17;;
813;SDS011;389;48.710;9.392;2022-12-18T06:33:31;8.27;;;6.40;;
813;SDS011;389;48.710;9.392;2022-12-18T06:36:00;8.03;;;4.90;;
813;SDS011;389;48.710;9.392;2022-12-18T06:38:31;11.25;;;5.32;;
813;SDS011;389;48.710;9.392;2022-12-18T06:40:57;10.95;;;5.68;;
813;SDS011;389;48.710;9.392;2022-12-18T06:43:22;6.87;;;4.40;;
813;SDS011;389;48.710;9.392;2022-12-18T06:45:48;11.00;;;6.23;;
813;SDS011;389;48.710;9.392;2022-12-18T06:48:17;7.32;;;5.28;;
813;SDS011;389;48.710;9.392;2022-12-18T06:50:46;5.47;;;4.00;;
813;SDS011;389;48.710;9.392;2022-12-18T06:53:12;3.70;;;3.40;;
813;SDS011;389;48.710;9.392;2022-12-18T06:55:38;4.70;;;4.40;;
813;SDS011;389;48.710;9.392;2022-12-18T06:58:03;7.30;;;5.80;;
813;SDS011;389;48.710;9.392;2022-12-18T07:00:29;11.40;;;4.60;;
813;SDS011;389;48.710;9.392;2022-12-18T07:02:54;21.57;;;6.07;;
813;SDS011;389;48.710;9.392;2022-12-18T07:05:20;5.83;;;4.60;;
813;SDS011;389;48.710;9.392;2022-12-18T07:07:45;6.83;;;3.70;;
813;SDS011;389;48.710;9.392;2022-12-18T07:10:11;9.27;;;6.07;;
813;SDS011;389;48.710;9.392;2022-12-18T07:12:37;12.33;;;5.77;;
813;SDS011;389;48.710;9.392;2022-12-18T07:15:02;8.30;;;6.07;;
813;SDS011;389;48.710;9.392;2022-12-18T07:17:28;9.48;;;4.22;;
813;SDS011;389;48.710;9.392;2022-12-18T07:19:54;15.10;;;8.10;;
813;SDS011;389;48.710;9.392;2022-12-18T07:22:20;9.03;;;5.73;;
813;SDS011;389;48.710;9.392;2022-12-18T07:24:45;14.43;;;7.27;;
813;SDS011;389;48.710;9.392;2022-12-18T07:27:11;7.47;;;5.30;;
813;SDS011;389;48.710;9.392;2022-12-18T07:29:36;12.83;;;6.50;;
813;SDS011;389;48.710;9.392;2022-12-18T07:32:02;16.97;;;7.43;;
813;SDS011;389;48.710;9.392;2022-12-18T07:34:28;20.03;;;5.83;;
813;SDS011;389;48.710;9.392;2022-12-18T07:36:53;5.57;;;5.07;;
813;SDS011;389;48.710;9.392;2022-12-18T07:39:19;6.53;;;4.30;;
813;SDS011;389;48.710;9.392;2022-12-18T07:41:44;7.43;;;6.63;;
813;SDS011;389;48.710;9.392;2022-12-18T07:44:33;12.57;;;6.47;;
813;SDS011;389;48.710;9.392;2022-12-18T07:46:58;5.20;;;4.63;;
813;SDS011;389;48.710;9.392;2022-12-18T07:49:24;11.50;;;7.53;;
813;SDS011;389;48.710;9.392;2022-12-18T07:51:49;9.17;;;4.37;;
813;SDS011;389;48.710;9.392;2022-12-18T07:54:15;17.80;;;8.80;;
813;SDS011;389;48.710;9.392;2022-12-18T07:56:41;8.90;;;7.07;;
813;SDS011;389;48.710;9.392;2022-12-18T07:59:06;10.30;;;6.70;;
813;SDS011;389;48.710;9.392;2022-12-18T08:01:32;9.80;;;5.83;;
813;SDS011;389;48.710;9.392;2022-12-18T08:03:58;19.88;;;6.60;;
813;SDS011;389;48.710;9.392;2022-12-18T08:06:24;7.33;;;4.60;;
813;SDS011;389;48.710;9.392;2022-12-18T08:08:53;12.48;;;7.60;;
813;SDS011;389;48.710;9.392;2022-12-18T08:11:20;24.33;;;9.23;;
813;SDS011;389;48.710;9.392;2022-12-18T08:13:47;9.18;;;7.15;;
813;SDS011;389;48.710;9.392;2022-12-18T08:16:13;8.50;;;7.37;;
813;SDS011;389;48.710;9.392;2022-12-18T08:18:38;26.07;;;6.27;;
813;SDS011;389;48.710;9.392;2022-12-18T08:21:08;18.67;;;7.50;;
813;SDS011;389;48.710;9.392;2022-12-18T08:23:35;13.55;;;7.38;;
813;SDS011;389;48.710;9.392;2022-12-18T08:26:01;34.77;;;10.43;;
813;SDS011;389;48.710;9.392;2022-12-18T08:28:26;18.70;;;11.33;;
813;SDS011;389;48.710;9.392;2022-12-18T08:30:52;17.23;;;8.77;;
813;SDS011;389;48.710;9.392;2022-12-18T08:33:17;11.33;;;6.27;;
813;SDS011;389;48.710;9.392;2022-12-18T08:35:43;18.13;;;7.90;;
813;SDS011;389;48.710;9.392;2022-12-18T08:38:09;13.13;;;5.53;;
813;SDS011;389;48.710;9.392;2022-12-18T08:40:34;19.03;;;7.40;;
813;SDS011;389;48.710;9.392;2022-12-18T08:43:00;19.53;;;9.33;;
813;SDS011;389;48.710;9.392;2022-12-18T08:45:44;6.57;;;4.53;;
813;SDS011;389;48.710;9.392;2022-12-18T08:48:09;10.27;;;5.80;;
813;SDS011;389;48.710;9.392;2022-12-18T08:50:35;12.40;;;7.80;;
813;SDS011;389;48.710;9.392;2022-12-18T08:53:01;10.37;;;8.20;;
813;SDS011;389;48.710;9.392;2022-12-18T08:55:27;27.90;;;8.30;;
813;SDS011;389;48.710;9.392;2022-12-18T08:57:53;13.40;;;7.57;;
813;SDS011;389;48.710;9.392;2022-12-18T09:00:18;12.60;;;8.87;;
813;SDS011;389;48.710;9.392;2022-12-18T09:02:44;21.27;;;11.25;;
813;SDS011;389;48.710;9.392;2022-12-18T09:05:10;19.63;;;11.00;;
813;SDS011;389;48.710;9.392;2022-12-18T09:07:36;22.27;;;9.97;;
813;SDS011;389;48.710;9.392;2022-12-18T09:10:01;12.80;;;7.47;;
813;SDS011;389;48.710;9.392;2022-12-18T09:12:27;24.37;;;11.50;;
813;SDS011;389;48.710;9.392;2022-12-18T09:14:53;24.83;;;10.73;;
813;SDS011;389;48.710;9.392;2022-12-18T09:17:18;19.60;;;10.40;;
813;SDS011;389;48.710;9.392;2022-12-18T09:19:44;21.80;;;11.37;;
813;SDS011;389;48.710;9.392;2022-12-18T09:22:09;21.47;;;10.20;;
813;SDS011;389;48.710;9.392;2022-12-18T09:24:35;17.87;;;10.90;;
813;SDS011;389;48.710;9.392;2022-12-18T09:27:01;30.77;;;14.13;;
813;SDS011;389;48.710;9.392;2022-12-18T09:29:26;26.50;;;12.13;;
813;SDS011;389;48.710;9.392;2022-12-18T09:31:52;26.10;;;11.43;;
813;SDS011;389;48.710;9.392;2022-12-18T09:34:17;17.07;;;11.03;;
813;SDS011;389;48.710;9.392;2022-12-18T09:36:45;26.50;;;12.90;;
813;SDS011;389;48.710;9.392;2022-12-18T09:39:11;26.53;;;10.73;;
813;SDS011;389;48.710;9.392;2022-12-18T09:49:42;24.33;;;12.27;;
813;SDS011;389;48.710;9.392;2022-12-18T09:55:09;25.13;;;11.50;;
813;SDS011;389;48.710;9.392;2022-12-18T09:57:45;27.77;;;13.87;;
813;SDS011;389;48.710;9.392;2022-12-18T10:00:26;28.63;;;14.07;;
813;SDS011;389;48.710;9.392;2022-12-18T10:02:52;23.13;;;11.60;;
813;SDS011;389;48.710;9.392;2022-12-18T10:05:33;29.83;;;15.73;;
813;SDS011;389;48.710;9.392;2022-12-18T10:08:10;31.30;;;15.77;;
813;SDS011;389;48.710;9.392;2022-12-18T10:10:51;36.47;;;15.40;;
813;SDS011;389;48.710;9.392;2022-12-18T10:13:20;41.43;;;12.90;;
813;SDS011;389;48.710;9.392;2022-12-18T10:21:47;32.63;;;15.60;;
813;SDS011;389;48.710;9.392;2022-12-18T10:26:58;38.13;;;15.67;;
813;SDS011;389;48.710;9.392;2022-12-18T10:29:34;47.40;;;14.67;;
813;SDS011;389;48.710;9.392;2022-12-18T10:32:00;31.40;;;14.40;;
813;SDS011;389;48.710;9.392;2022-12-18T10:34:25;34.30;;;15.03;;
813;SDS011;389;48.710;9.392;2022-12-18T10:36:51;34.73;;;16.33;;
813;SDS011;389;48.710;9.392;2022-12-18T10:39:20;29.90;;;13.73;;
813;SDS011;389;48.710;9.392;2022-12-18T10:41:48;31.07;;;14.10;;
813;SDS011;389;48.710;9.392;2022-12-18T10:46:43;31.33;;;14.73;;
813;SDS011;389;48.710;9.392;2022-12-18T10:51:48;39.87;;;15.70;;
813;SDS011;389;48.710;9.392;2022-12-18T10:54:15;39.03;;;14.67;;
813;SDS011;389;48.710;9.392;2022-12-18T10:56:44;42.77;;;18.60;;
813;SDS011;389;48.710;9.392;2022-12-18T10:59:11;42.83;;;17.90;;
813;SDS011;389;48.710;9.392;2022-12-18T11:01:46;35.00;;;17.27;;
813;SDS011;389;48.710;9.392;2022-12-18T11:09:36;38.93;;;15.07;;
813;SDS011;389;48.710;9.392;2022-12-18T11:14:42;32.07;;;16.63;;
813;SDS011;389;48.710;9.392;2022-12-18T11:17:20;47.70;;;18.00;;
813;SDS011;389;48.710;9.392;2022-12-18T11:19:54;42.53;;;18.30;;
813;SDS011;389;48.710;9.392;2022-12-18T11:22:28;44.20;;;20.30;;
813;SDS011;389;48.710;9.392;2022-12-18T11:25:00;34.87;;;17.23;;
813;SDS011;389;48.710;9.392;2022-12-18T11:27:27;39.97;;;19.77;;
813;SDS011;389;48.710;9.392;2022-12-18T11:30:06;40.43;;;17.70;;
813;SDS011;389;48.710;9.392;2022-12-18T11:32:56;39.40;;;18.67;;
813;SDS011;389;48.710;9.392;2022-12-18T11:35:34;41.73;;;20.13;;
813;SDS011;389;48.710;9.392;2022-12-18T11:38:21;47.23;;;20.93;;
813;SDS011;389;48.710;9.392;2022-12-18T11:41:04;50.60;;;18.53;;
813;SDS011;389;48.710;9.392;2022-12-18T11:46:39;54.57;;;20.53;;
813;SDS011;389;48.710;9.392;2022-12-18T11:52:26;46.57;;;19.90;;
813;SDS011;389;48.710;9.392;2022-12-18T11:54:58;52.73;;;21.53;;
813;SDS011;389;48.710;9.392;2022-12-18T12:17:09;62.27;;;21.90;;
813;SDS011;389;48.710;9.392;2022-12-18T12:19:50;53.50;;;24.07;;
813;SDS011;389;48.710;9.392;2022-12-18T12:37:39;49.70;;;23.53;;
813;SDS011;389;48.710;9.392;2022-12-18T12:40:26;47.70;;;25.40;;
813;SDS011;389;48.710;9.392;2022-12-18T12:42:55;56.80;;;26.63;;
813;SDS011;389;48.710;9.392;2022-12-18T12:45:41;52.80;;;26.17;;
813;SDS011;389;48.710;9.392;2022-12-18T12:51:09;65.10;;;29.23;;
813;SDS011;389;48.710;9.392;2022-12-18T12:53:42;48.70;;;24.43;;
813;SDS011;389;48.710;9.392;2022-12-18T12:56:09;60.40;;;30.53;;
813;SDS011;389;48.710;9.392;2022-12-18T12:58:46;60.37;;;26.13;;
813;SDS011;389;48.710;9.392;2022-12-18T13:07:03;51.20;;;22.83;;
813;SDS011;389;48.710;9.392;2022-12-18T13:15:42;61.50;;;26.37;;
813;SDS011;389;48.710;9.392;2022-12-18T13:20:39;56.17;;;25.60;;
813;SDS011;389;48.710;9.392;2022-12-18T13:33:41;73.27;;;30.07;;
813;SDS011;389;48.710;9.392;2022-12-18T13:39:11;58.60;;;28.70;;
813;SDS011;389;48.710;9.392;2022-12-18T13:41:46;68.07;;;28.87;;
813;SDS011;389;48.710;9.392;2022-12-18T13:47:04;56.43;;;27.67;;
813;SDS011;389;48.710;9.392;2022-12-18T13:49:57;56.20;;;25.53;;
813;SDS011;389;48.710;9.392;2022-12-18T13:52:25;63.53;;;27.50;;
813;SDS011;389;48.710;9.392;2022-12-18T13:54:57;48.97;;;21.60;;
813;SDS011;389;48.710;9.392;2022-12-18T13:57:33;46.83;;;20.43;;
813;SDS011;389;48.710;9.392;2022-12-18T14:02:47;33.60;;;13.00;;
813;SDS011;389;48.710;9.392;2022-12-18T14:05:27;35.60;;;12.90;;
813;SDS011;389;48.710;9.392;2022-12-18T14:08:11;26.03;;;11.47;;
813;SDS011;389;48.710;9.392;2022-12-18T14:10:49;31.07;;;11.57;;
813;SDS011;389;48.710;9.392;2022-12-18T14:13:29;26.73;;;9.90;;
813;SDS011;389;48.710;9.392;2022-12-18T14:22:15;35.53;;;14.03;;
813;SDS011;389;48.710;9.392;2022-12-18T14:28:31;26.50;;;12.10;;
813;SDS011;389;48.710;9.392;2022-12-18T14:31:29;40.30;;;15.10;;
813;SDS011;389;48.710;9.392;2022-12-18T14:34:08;43.07;;;17.33;;
813;SDS011;389;48.710;9.392;2022-12-18T14:37:15;35.97;;;12.70;;
813;SDS011;389;48.710;9.392;2022-12-18T14:43:22;27.87;;;12.63;;
813;SDS011;389;48.710;9.392;2022-12-18T15:04:46;34.37;;;13.00;;
813;SDS011;389;48.710;9.392;2022-12-18T15:07:22;30.57;;;13.37;;
813;SDS011;389;48.710;9.392;2022-12-18T15:10:09;32.73;;;12.73;;
813;SDS011;389;48.710;9.392;2022-12-18T15:12:39;35.63;;;11.87;;
813;SDS011;389;48.710;9.392;2022-12-18T15:18:01;26.57;;;10.87;;
813;SDS011;389;48.710;9.392;2022-12-18T15:20:47;33.93;;;13.17;;
813;SDS011;389;48.710;9.392;2022-12-18T15:23:19;28.70;;;11.10;;
813;SDS011;389;48.710;9.392;2022-12-18T15:28:25;20.93;;;9.57;;
813;SDS011;389;48.710;9.392;2022-12-18T15:33:40;23.27;;;10.87;;
813;SDS011;389;48.710;9.392;2022-12-18T15:36:10;26.97;;;12.00;;
813;SDS011;389;48.710;9.392;2022-12-18T15:38:38;24.70;;;10.20;;
813;SDS011;389;48.710;9.392;2022-12-18T15:41:03;24.40;;;11.83;;
813;SDS011;389;48.710;9.392;2022-12-18T15:43:29;28.67;;;10.10;;
813;SDS011;389;48.710;9.392;2022-12-18T15:46:11;39.67;;;13.50;;
813;SDS011;389;48.710;9.392;2022-12-18T15:48:42;21.27;;;10.73;;
813;SDS011;389;48.710;9.392;2022-12-18T15:53:56;26.10;;;9.87;;
813;SDS011;389;48.710;9.392;2022-12-18T15:56:24;21.00;;;8.73;;
813;SDS011;389;48.710;9.392;2022-12-18T15:59:13;18.77;;;9.80;;
813;SDS011;389;48.710;9.392;2022-12-18T16:01:40;24.60;;;9.50;;
813;SDS011;389;48.710;9.392;2022-12-18T16:04:17;28.47;;;10.57;;
813;SDS011;389;48.710;9.392;2022-12-18T16:06:49;37.77;;;10.80;;
813;SDS011;389;48.710;9.392;2022-12-18T16:09:16;18.97;;;9.37;;
813;SDS011;389;48.710;9.392;2022-12-18T16:11:44;19.17;;;10.00;;
813;SDS011;389;48.710;9.392;2022-12-18T16:16:46;22.20;;;9.83;;
813;SDS011;389;48.710;9.392;2022-12-18T16:19:14;26.57;;;10.50;;
813;SDS011;389;48.710;9.392;2022-12-18T16:21:44;23.27;;;11.07;;
813;SDS011;389;48.710;9.392;2022-12-18T16:24:15;25.27;;;10.90;;
813;SDS011;389;48.710;9.392;2022-12-18T16:26:48;24.73;;;10.93;;
813;SDS011;389;48.710;9.392;2022-12-18T16:29:16;19.63;;;8.30;;
813;SDS011;389;48.710;9.392;2022-12-18T16:31:42;23.37;;;9.73;;
813;SDS011;389;48.710;9.392;2022-12-18T16:34:12;28.77;;;11.90;;
813;SDS011;389;48.710;9.392;2022-12-18T16:36:51;28.73;;;11.80;;
813;SDS011;389;48.710;9.392;2022-12-18T16:39:18;24.20;;;11.60;;
813;SDS011;389;48.710;9.392;2022-12-18T16:41:49;35.67;;;13.03;;
813;SDS011;389;48.710;9.392;2022-12-18T16:46:46;32.00;;;12.47;;
813;SDS011;389;48.710;9.392;2022-12-18T16:51:43;35.33;;;13.57;;
813;SDS011;389;48.710;9.392;2022-12-18T16:54:10;30.90;;;13.43;;
813;SDS011;389;48.710;9.392;2022-12-18T16:56:35;52.80;;;14.77;;
813;SDS011;389;48.710;9.392;2022-12-18T16:59:02;43.47;;;15.40;;
813;SDS011;389;48.710;9.392;2022-12-18T17:01:28;50.93;;;18.77;;
813;SDS011;389;48.710;9.392;2022-12-18T17:03:59;48.43;;;18.10;;
813;SDS011;389;48.710;9.392;2022-12-18T17:06:27;28.27;;;12.00;;
813;SDS011;389;48.710;9.392;2022-12-18T17:08:59;40.47;;;15.23;;
813;SDS011;389;48.710;9.392;2022-12-18T17:11:32;24.27;;;11.60;;
813;SDS011;389;48.710;9.392;2022-12-18T17:16:37;25.40;;;12.77;;
813;SDS011;389;48.710;9.392;2022-12-18T17:19:02;26.77;;;11.47;;
813;SDS011;389;48.710;9.392;2022-12-18T17:21:31;32.37;;;11.40;;
813;SDS011;389;48.710;9.392;2022-12-18T17:24:00;38.73;;;14.40;;
813;SDS011;389;48.710;9.392;2022-12-18T17:26:27;22.83;;;10.27;;
813;SDS011;389;48.710;9.392;2022-12-18T17:28:54;34.27;;;15.00;;
813;SDS011;389;48.710;9.392;2022-12-18T17:31:25;24.83;;;11.13;;
813;SDS011;389;48.710;9.392;2022-12-18T17:33:53;24.90;;;11.17;;
813;SDS011;389;48.710;9.392;2022-12-18T17:36:19;24.70;;;11.23;;
813;SDS011;389;48.710;9.392;2022-12-18T17:38:52;23.27;;;10.40;;
813;SDS011;389;48.710;9.392;2022-12-18T17:41:20;22.67;;;9.90;;
813;SDS011;389;48.710;9.392;2022-12-18T17:43:51;32.20;;;11.50;;
813;SDS011;389;48.710;9.392;2022-12-18T17:46:17;28.80;;;10.63;;
813;SDS011;389;48.710;9.392;2022-12-18T17:48:44;27.27;;;11.17;;
813;SDS011;389;48.710;9.392;2022-12-18T17:51:10;30.93;;;11.40;;
813;SDS011;389;48.710;9.392;2022-12-18T17:53:38;28.60;;;10.30;;
813;SDS011;389;48.710;9.392;2022-12-18T17:56:04;35.23;;;11.07;;
813;SDS011;389;48.710;9.392;2022-12-18T17:58:32;28.10;;;10.50;;
813;SDS011;389;48.710;9.392;2022-12-18T18:03:28;33.50;;;12.63;;
813;SDS011;389;48.710;9.392;2022-12-18T18:05:54;28.93;;;11.90;;
813;SDS011;389;48.710;9.392;2022-12-18T18:08:21;33.87;;;14.37;;
813;SDS011;389;48.710;9.392;2022-12-18T18:10:47;20.67;;;10.07;;
813;SDS011;389;48.710;9.392;2022-12-18T18:13:20;32.93;;;12.30;;
813;SDS011;389;48.710;9.392;2022-12-18T18:16:07;27.40;;;11.73;;
813;SDS011;389;48.710;9.392;2022-12-18T18:18:33;33.73;;;14.20;;
813;SDS011;389;48.710;9.392;2022-12-18T18:21:03;30.20;;;12.97;;
813;SDS011;389;48.710;9.392;2022-12-18T18:23:30;38.70;;;15.07;;
813;SDS011;389;48.710;9.392;2022-12-18T18:26:01;27.93;;;11.90;;
813;SDS011;389;48.710;9.392;2022-12-18T18:28:30;23.40;;;10.80;;
813;SDS011;389;48.710;9.392;2022-12-18T18:30:56;33.60;;;13.03;;
813;SDS011;389;48.710;9.392;2022-12-18T18:33:22;31.03;;;13.20;;
813;SDS011;389;48.710;9.392;2022-12-18T18:35:48;29.07;;;12.63;;
813;SDS011;389;48.710;9.392;2022-12-18T18:38:13;46.10;;;17.40;;
813;SDS011;389;48.710;9.392;2022-12-18T18:40:39;41.90;;;17.47;;
813;SDS011;389;48.710;9.392;2022-12-18T18:43:05;40.70;;;13.77;;
813;SDS011;389;48.710;9.392;2022-12-18T18:45:30;31.67;;;12.23;;
813;SDS011;389;48.710;9.392;2022-12-18T18:47:56;33.00;;;11.90;;
813;SDS011;389;48.710;9.392;2022-12-18T18:50:22;19.57;;;9.83;;